• Join FlightAware (Why Join?)
  • Login
  • US Flag 
03:26PM EDT


 

Airport Tracker/Info


-or-


 

Live Flight TrackerFlight Track Log ✈ EJA641 ✈ 29-Apr-2013 ✈ KSUS - KSOP

Flight Track Log - Related Links

Times and Time Zones

All times are in EDT time to prevent confusion due to time zone crossing. See the EJA641 flight status page for this flight to view local times or setup timezone preferences in your user account.

Time Position Orientation Groundspeed Altitude Reporting Facility
EDT Latitude Longitude Course Direction KTS MPH feet Rate Location/Type
09:12AM 38.6500 -90.7000 107° East 184 212 2,500  Level Gateway (St. Louis) TRACON
09:12AM 38.6167 -90.7000 180° South 220 253 3,800 1,320 Climbing Gateway (St. Louis) TRACON
09:13AM 38.6039 -90.6872 142° Southeast 227 261 4,200 2,040 Climbing Kansas City Center
09:14AM 38.5733 -90.6011 114° Southeast 252 290 6,700 2,820 Climbing Kansas City Center
09:15AM 38.5525 -90.4822 103° East 290 334 10,000 2,940 Climbing Kansas City Center
09:16AM 38.5439 -90.3761 96° East 304 350 12,800 2,460 Climbing Kansas City Center
09:17AM 38.4772 -89.9068 107° East  Level Estimated
09:17AM 38.5336 -90.2669 97° East 311 358 15,200  Level Kansas City Center
09:18AM 38.5217 -90.1506 97° East 328 377 17,400 2,040 Climbing Kansas City Center
09:19AM 38.5094 -90.0264 97° East 348 400 19,500 2,220 Climbing Kansas City Center
09:20AM 38.4928 -89.8717 98° East 365 420 22,100 2,280 Climbing Kansas City Center
09:21AM 38.4792 -89.7403 97° East 373 429 24,200 2,040 Climbing Kansas City Center
09:22AM 38.4658 -89.5919 97° East 385 443 26,300 1,860 Climbing Kansas City Center
09:23AM 38.4514 -89.4550 98° East 389 448 28,100 1,740 Climbing Kansas City Center
09:24AM 38.4367 -89.3169 98° East 394 453 29,900 1,620 Climbing Kansas City Center
09:25AM 38.4208 -89.1675 98° East 396 456 31,500 1,440 Climbing Kansas City Center
09:26AM 38.4050 -89.0253 98° East 403 464 32,900 1,260 Climbing Kansas City Center
09:27AM 38.3878 -88.8708 98° East 410 472 34,200 1,200 Climbing Kansas City Center
09:28AM 38.3703 -88.7258 99° East 415 478 35,500 1,200 Climbing Kansas City Center
09:29AM 38.3128 -88.5908 118° Southeast 418 481 36,700 1,140 Climbing Kansas City Center
09:30AM 38.2514 -88.4628 121° Southeast 423 487 37,900 1,020 Climbing Kansas City Center
09:31AM 38.1908 -88.3353 121° Southeast 420 483 38,900 480 Climbing Kansas City Center
09:32AM 38.1289 -88.2056 121° Southeast 425 489 39,000  Climbing Kansas City Center
09:33AM 38.0642 -88.0711 121° Southeast 440 506 39,000  Level Kansas City Center
09:34AM 38.0011 -87.9386 121° Southeast 440 506 39,000  Level Kansas City Center
09:35AM 37.9497 -87.8336 122° Southeast 442 509 39,000  Level Indianapolis Center
09:36AM 37.8853 -87.7019 122° Southeast 441 507 39,000  Level Indianapolis Center
09:37AM 37.8094 -87.5461 122° Southeast 435 501 39,000  Level Indianapolis Center
09:38AM 37.7486 -87.4236 122° Southeast 439 505 39,000  Level Indianapolis Center
09:40AM 37.6158 -87.1561 122° Southeast 437 503 39,000  Level Indianapolis Center
09:41AM 37.5508 -87.0264 122° Southeast 439 505 39,000  Level Indianapolis Center
09:42AM 37.4767 -86.8822 123° Southeast 429 494 39,000  Level Indianapolis Center
09:43AM 37.4128 -86.7539 122° Southeast 429 494 39,000  Level Indianapolis Center
09:44AM 37.3486 -86.6286 123° Southeast 423 487 39,000  Level Memphis Center
09:45AM 37.2867 -86.5064 122° Southeast 423 487 39,000  Level Memphis Center
09:46AM 37.2222 -86.3819 123° Southeast 423 487 39,000  Level Memphis Center
09:47AM 37.1686 -86.2700 121° Southeast 423 487 39,000  Level Memphis Center
09:48AM 37.1042 -86.1486 124° Southeast 423 487 39,000  Level Memphis Center
09:51AM 36.9442 -85.8394 123° Southeast 421 484 39,000  Level Indianapolis Center
09:52AM 36.8794 -85.7139 123° Southeast 424 488 39,000  Level Indianapolis Center
09:53AM 36.8139 -85.5886 123° Southeast 426 490 39,000  Level Indianapolis Center
09:54AM 36.7475 -85.4597 123° Southeast 419 482 39,000  Level Indianapolis Center
09:55AM 36.6828 -85.3375 123° Southeast 421 484 39,000  Level Indianapolis Center
09:56AM 36.6178 -85.2161 124° Southeast 420 483 39,000  Level Indianapolis Center
09:57AM 36.5533 -85.0933 123° Southeast 420 483 39,000  Level Indianapolis Center
09:58AM 36.4753 -84.9464 123° Southeast 423 487 39,000  Level Indianapolis Center
09:59AM 36.4081 -84.8211 124° Southeast 432 497 39,000  Level Indianapolis Center
10:00AM 36.3392 -84.6947 124° Southeast 438 504 39,000  Level Indianapolis Center
10:01AM 36.2594 -84.5433 123° Southeast 443 510 39,000  Level Atlanta Center
10:02AM 36.1911 -84.4219 125° Southeast 443 510 39,000  Level Atlanta Center
10:03AM 36.1228 -84.2983 124° Southeast 443 510 39,000  Level Atlanta Center
10:04AM 36.0561 -84.1775 124° Southeast 443 510 39,000  Level Atlanta Center
10:05AM 35.9894 -84.0489 123° Southeast 443 510 39,000  Level Atlanta Center
10:06AM 35.9206 -83.9258 125° Southeast 443 510 39,000  Level Atlanta Center
10:07AM 35.8892 -83.7772 105° East 427 491 39,000  Level Atlanta Center
10:08AM 35.8697 -83.6261 99° East 432 497 39,000  Level Atlanta Center
10:09AM 35.8506 -83.4750 99° East 443 510 39,000  Level Atlanta Center
10:10AM 35.8267 -83.3217 101° East 448 516 39,000  Level Atlanta Center
10:11AM 35.8028 -83.1708 101° East 448 516 39,000 -600 Level Atlanta Center
10:12AM 35.7828 -83.0175 99° East 448 516 37,800 -1,200 Descending Atlanta Center
10:13AM 35.7586 -82.8719 102° East 448 516 36,600 -1,260 Descending Atlanta Center
10:14AM 35.7383 -82.7236 100° East 442 509 35,300 -840 Descending Atlanta Center
10:15AM 35.7158 -82.5808 101° East 435 501 35,000 -300 Descending Atlanta Center
10:16AM 35.6978 -82.4583 100° East 418 481 34,800 -660 Descending Atlanta Center
10:17AM 35.6747 -82.3031 100° East 441 507 33,700 -900 Descending Atlanta Center
10:18AM 35.6517 -82.1528 101° East 452 520 33,000 -360 Descending Atlanta Center
10:19AM 35.6239 -81.9872 102° East 452 520 33,000 -600 Level Atlanta Center
10:20AM 35.6006 -81.8372 101° East 447 514 31,900 -1,260 Descending Atlanta Center
10:21AM 35.5747 -81.6872 102° East 447 514 30,500 -960 Descending Atlanta Center
10:22AM 35.5489 -81.5347 102° East 447 514 30,000 -600 Descending Atlanta Center
10:23AM 35.5228 -81.3850 102° East 447 514 29,300 -1,260 Descending Atlanta Center
10:24AM 35.4964 -81.2353 102° East 440 506 27,500 -1,800 Descending Atlanta Center
10:25AM 35.4739 -81.0806 100° East 454 522 25,700 -1,920 Descending Atlanta Center
10:26AM 35.4494 -80.9311 101° East 460 529 23,700 -1,980 Descending Atlanta Center
10:27AM 35.4250 -80.7892 102° East 436 502 21,800 -2,040 Descending Atlanta Center
10:28AM 35.4047 -80.6575 101° East 422 486 19,700 -2,160 Descending Atlanta Center
10:29AM 35.3850 -80.5514 103° East 422 486 18,200 -1,980 Descending Atlanta Center
10:29AM 35.3775 -80.5133 104° East 417 480 17,700 -1,980 Descending Atlanta Center
10:30AM 35.3625 -80.4225 101° East 395 455 16,200 -2,040 Descending Atlanta Center
10:30AM 35.3531 -80.3822 106° East 404 465 15,700 -1,980 Descending Atlanta Center
10:31AM 35.3322 -80.2533 101° East 388 447 13,700 -2,100 Descending Atlanta Center
10:32AM 35.3100 -80.1372 103° East 369 425 11,500 -2,340 Descending Atlanta Center
10:33AM 35.2919 -80.0286 101° East 337 388 9,100 -1,260 Descending Atlanta Center
10:34AM 35.2744 -79.9431 104° East 308 354 9,000 -780 Descending Atlanta Center
10:35AM 35.2381 -79.8533 116° Southeast 294 338 7,600 -1,500 Descending Atlanta Center
10:36AM 35.2042 -79.7761 118° Southeast 276 318 6,000 -1,620 Descending Atlanta Center
10:37AM 35.1700 -79.6967 118° Southeast 263 303 4,400 -1,680 Descending Atlanta Center
10:38AM 35.1339 -79.6247 122° Southeast 258 297 2,700 -1,740 Descending Atlanta Center